Time;durP1;ratioP1;P1;durP2;ratioP2;P2;SDS_P1;SDS_P2;PMS_P1;PMS_P2;Temp;Humidity;BMP_temperature;BMP_pressure;BME280_temperature;BME280_humidity;BME280_pressure;Samples;Min_cycle;Max_cycle;Signal;HPM_P1;HPM_P2
2022/04/29 00:00:18;;;;;;;13.73;4.25;;;;;;;7.80;75.01;103106.69;4994830;28;20034;-47
2022/04/29 00:02:45;;;;;;;14.85;4.40;;;;;;;7.77;75.80;103113.81;4996700;28;20027;-47
2022/04/29 00:05:11;;;;;;;15.50;4.35;;;;;;;7.68;75.67;103105.84;4996465;28;20102;-47
2022/04/29 00:07:39;;;;;;;12.57;4.60;;;;;;;7.58;75.33;103098.88;4996469;28;20053;-47
2022/04/29 00:10:09;;;;;;;14.73;5.03;;;;;;;7.46;76.54;103103.97;4996369;28;20113;-47
2022/04/29 00:12:35;;;;;;;9.15;4.43;;;;;;;7.46;76.33;103096.25;4996626;28;20025;-48
2022/04/29 00:15:01;;;;;;;14.45;4.57;;;;;;;7.67;76.11;103095.63;4994840;28;20045;-47
2022/04/29 00:17:26;;;;;;;9.15;4.47;;;;;;;7.58;75.95;103093.75;4996446;28;20037;-47
2022/04/29 00:19:52;;;;;;;10.95;4.60;;;;;;;7.45;76.49;103086.91;4996962;28;20022;-48
2022/04/29 00:22:17;;;;;;;12.77;4.50;;;;;;;7.42;76.42;103089.69;4996338;28;20026;-48
2022/04/29 00:24:43;;;;;;;9.40;4.70;;;;;;;7.57;76.14;103089.53;4996109;28;20440;-48
2022/04/29 00:27:08;;;;;;;11.70;4.95;;;;;;;7.49;76.79;103091.84;4996436;28;20034;-48
2022/04/29 00:29:34;;;;;;;13.05;4.80;;;;;;;7.56;76.43;103086.13;4996022;28;20029;-47
2022/04/29 00:31:59;;;;;;;14.57;4.50;;;;;;;7.45;76.84;103086.91;4995118;28;20445;-48
2022/04/29 00:34:24;;;;;;;13.07;4.85;;;;;;;7.41;77.10;103093.19;4996431;28;20042;-48
2022/04/29 00:36:50;;;;;;;16.05;4.40;;;;;;;7.65;76.40;103093.19;4996455;28;20018;-47
2022/04/29 00:39:15;;;;;;;13.25;4.75;;;;;;;7.67;76.10;103082.78;4996118;28;20022;-48
2022/04/29 00:41:40;;;;;;;17.38;4.80;;;;;;;7.54;75.87;103075.13;4995700;28;20027;-48
2022/04/29 00:44:08;;;;;;;15.43;5.43;;;;;;;7.62;75.95;103069.41;4995980;28;20126;-48
2022/04/29 00:46:35;;;;;;;16.98;5.05;;;;;;;7.40;76.84;103078.69;4995711;28;20101;-48
2022/04/29 00:49:02;;;;;;;13.65;5.03;;;;;;;7.13;78.26;103066.03;4995571;28;20106;-48
2022/04/29 00:51:28;;;;;;;14.40;4.93;;;;;;;7.00;79.13;103060.94;4995601;28;20034;-48
2022/04/29 00:53:56;;;;;;;12.18;4.80;;;;;;;7.21;78.15;103065.50;4996243;28;20061;-47
2022/04/29 00:56:23;;;;;;;10.60;5.05;;;;;;;6.93;78.65;103059.75;4995507;28;20057;-47
2022/04/29 00:59:02;;;;;;;9.73;5.07;;;;;;;7.07;78.46;103061.31;4995013;28;20018;-48
2022/04/29 01:01:31;;;;;;;12.88;4.82;;;;;;;7.16;78.22;103063.25;4995625;28;20366;-48
2022/04/29 01:03:58;;;;;;;10.13;4.90;;;;;;;7.22;78.22;103059.41;4995550;28;20034;-48
2022/04/29 01:06:25;;;;;;;14.38;4.72;;;;;;;7.08;77.67;103059.56;4995259;28;20022;-47
2022/04/29 01:08:50;;;;;;;11.35;4.95;;;;;;;7.04;78.88;103048.69;4995213;28;20041;-47
2022/04/29 01:11:20;;;;;;;14.05;5.03;;;;;;;7.14;78.78;103044.53;4994558;28;20022;-47
2022/04/29 01:13:46;;;;;;;16.67;5.78;;;;;;;7.04;78.89;103040.97;4997081;28;20022;-47
2022/04/29 01:16:11;;;;;;;15.40;5.35;;;;;;;7.13;79.13;103037.75;5014973;28;20385;-46
2022/04/29 01:18:37;;;;;;;17.52;5.40;;;;;;;7.17;77.75;103035.78;4997044;28;20484;-47
2022/04/29 01:21:04;;;;;;;12.50;4.60;;;;;;;7.24;77.76;103045.50;5015201;28;20026;-47
2022/04/29 01:23:32;;;;;;;15.15;5.10;;;;;;;6.99;79.22;103041.31;5014997;28;20476;-47
2022/04/29 01:25:57;;;;;;;17.67;5.70;;;;;;;7.31;78.41;103040.78;5014551;28;20091;-52
2022/04/29 01:28:24;;;;;;;12.57;4.97;;;;;;;7.29;78.05;103041.81;5014508;28;20026;-47
2022/04/29 01:30:51;;;;;;;13.20;5.07;;;;;;;7.06;79.52;103039.13;5014438;28;20030;-47
2022/04/29 01:33:20;;;;;;;12.75;4.57;;;;;;;7.04;79.02;103040.16;5014653;28;20480;-46
2022/04/29 01:35:46;;;;;;;11.30;5.18;;;;;;;7.31;78.97;103034.78;5014439;28;20369;-47
2022/04/29 01:38:11;;;;;;;12.13;5.50;;;;;;;7.42;78.31;103029.69;4997517;28;20033;-47
2022/04/29 01:40:36;;;;;;;13.85;4.70;;;;;;;7.61;77.21;103032.56;5014411;28;20029;-47
2022/04/29 01:43:02;;;;;;;13.10;5.38;;;;;;;7.43;77.94;103019.31;5015211;28;20026;-48
2022/04/29 01:45:28;;;;;;;11.43;5.30;;;;;;;7.10;78.52;103017.38;5014738;28;20104;-47
2022/04/29 01:47:53;;;;;;;11.70;4.90;;;;;;;6.96;79.77;103020.13;5014472;28;20466;-47
2022/04/29 01:50:18;;;;;;;17.13;5.93;;;;;;;6.91;80.65;103020.47;5014451;28;20144;-47
2022/04/29 01:52:43;;;;;;;13.57;5.20;;;;;;;6.89;80.68;103021.50;5014637;28;20073;-47
2022/04/29 01:55:09;;;;;;;15.15;5.25;;;;;;;6.78;81.03;103019.66;5014283;28;20397;-47
2022/04/29 01:57:35;;;;;;;17.92;5.53;;;;;;;7.06;80.36;103023.69;5014002;28;20032;-47
2022/04/29 02:00:00;;;;;;;16.65;5.50;;;;;;;7.27;78.86;103017.94;5014282;28;20081;-47
2022/04/29 02:02:26;;;;;;;16.23;5.05;;;;;;;7.14;78.97;103020.59;5013973;28;20424;-47
2022/04/29 02:04:51;;;;;;;13.82;4.80;;;;;;;7.14;80.33;103018.81;5013942;28;20498;-47
2022/04/29 02:07:17;;;;;;;12.05;5.20;;;;;;;7.35;79.25;103025.94;5014142;28;20026;-47
2022/04/29 02:09:42;;;;;;;18.48;5.70;;;;;;;7.32;79.12;103028.72;5012648;28;20052;-47
2022/04/29 02:12:08;;;;;;;14.13;5.53;;;;;;;7.42;79.70;103027.13;5014067;28;20036;-48
2022/04/29 02:14:35;;;;;;;17.92;5.35;;;;;;;7.34;78.61;103034.59;5014141;28;20112;-47
2022/04/29 02:17:04;;;;;;;12.88;5.10;;;;;;;7.40;79.00;103026.44;5014223;28;20108;-48
2022/04/29 02:19:30;;;;;;;13.05;5.25;;;;;;;7.23;79.24;103025.06;5014078;28;20029;-46
2022/04/29 02:21:56;;;;;;;13.50;5.50;;;;;;;7.23;79.77;103019.91;5013420;28;20034;-47
2022/04/29 02:24:22;;;;;;;11.73;5.55;;;;;;;7.28;79.08;103022.16;4996123;28;20021;-47
2022/04/29 02:26:47;;;;;;;15.43;4.88;;;;;;;7.40;79.11;103034.16;5013636;28;20029;-47
2022/04/29 02:29:13;;;;;;;11.77;5.28;;;;;;;7.38;78.75;103033.44;5013865;28;20080;-48
2022/04/29 02:31:38;;;;;;;14.63;5.28;;;;;;;7.41;78.85;103031.44;5014190;28;20026;-48
2022/04/29 02:34:03;;;;;;;14.65;5.78;;;;;;;7.57;78.93;103031.16;5013834;28;20026;-48
2022/04/29 02:36:29;;;;;;;11.65;4.90;;;;;;;7.58;78.06;103032.78;5014070;28;20026;-47
2022/04/29 02:38:54;;;;;;;9.57;4.78;;;;;;;7.50;78.98;103029.16;5013512;28;20053;-48
2022/04/29 02:41:19;;;;;;;11.02;4.88;;;;;;;7.61;78.71;103039.47;5013492;28;20058;-47
2022/04/29 02:43:45;;;;;;;17.58;5.95;;;;;;;7.56;78.87;103037.22;5013769;28;20022;-48
2022/04/29 02:46:10;;;;;;;11.80;5.28;;;;;;;7.57;78.56;103025.22;5013502;28;20465;-48
2022/04/29 02:48:36;;;;;;;16.35;5.60;;;;;;;7.46;79.25;103015.69;4995911;28;20033;-48
2022/04/29 02:51:04;;;;;;;12.98;5.30;;;;;;;7.24;80.10;103018.97;5013641;28;20026;-48
2022/04/29 02:53:30;;;;;;;12.63;5.32;;;;;;;7.29;80.10;103014.34;5013730;28;20065;-48
2022/04/29 02:55:55;;;;;;;13.55;5.18;;;;;;;7.13;80.42;102999.16;5013332;28;20026;-48
2022/04/29 02:58:20;;;;;;;18.70;5.18;;;;;;;7.30;79.97;103000.53;4996133;28;20044;-48
2022/04/29 03:00:46;;;;;;;16.02;5.38;;;;;;;7.32;79.71;102996.09;5011961;28;20124;-47
2022/04/29 03:03:11;;;;;;;12.43;5.30;;;;;;;7.17;80.61;102989.50;5013204;28;20449;-47
2022/04/29 03:05:36;;;;;;;9.40;4.93;;;;;;;7.13;80.72;102999.16;5013587;28;20030;-46
2022/04/29 03:08:01;;;;;;;16.70;5.50;;;;;;;7.00;81.45;102988.94;5013519;28;20480;-47
2022/04/29 03:10:27;;;;;;;11.32;5.00;;;;;;;7.25;81.03;102992.34;5013477;28;20105;-48
2022/04/29 03:12:52;;;;;;;13.07;5.20;;;;;;;7.40;79.74;103000.69;5013419;28;20022;-47
2022/04/29 03:15:18;;;;;;;14.10;4.95;;;;;;;7.10;80.77;102999.38;5011820;28;20067;-47
2022/04/29 03:20:34;;;;;;;12.65;5.10;;;;;;;7.22;80.64;102987.41;5013775;28;20157;-47
2022/04/29 03:22:59;;;;;;;11.30;5.25;;;;;;;7.34;79.88;103003.72;5013061;28;20049;-48
2022/04/29 03:25:24;;;;;;;11.05;5.20;;;;;;;7.34;80.05;103001.16;5013443;28;20018;-48
2022/04/29 03:27:49;;;;;;;9.25;5.00;;;;;;;7.42;79.89;103002.25;5013441;28;20030;-48
2022/04/29 03:30:15;;;;;;;14.50;5.72;;;;;;;7.46;80.04;102998.50;5013351;28;20519;-48
2022/04/29 03:32:40;;;;;;;18.10;5.30;;;;;;;7.46;80.11;103000.25;5013337;28;20022;-48
2022/04/29 03:35:06;;;;;;;12.65;5.10;;;;;;;7.57;78.78;102994.31;5013559;28;20029;-47
2022/04/29 03:37:31;;;;;;;19.30;6.47;;;;;;;7.46;79.33;102995.91;5016859;28;20026;-47
2022/04/29 03:39:56;;;;;;;12.93;5.30;;;;;;;7.35;79.73;102989.91;5016857;28;20105;-48
2022/04/29 03:42:21;;;;;;;15.60;5.05;;;;;;;7.41;79.75;102987.72;5016441;28;20385;-48
2022/04/29 03:44:47;;;;;;;14.15;5.03;;;;;;;7.37;79.51;102996.59;5016419;28;20025;-48
2022/04/29 03:47:13;;;;;;;12.95;5.03;;;;;;;7.27;79.69;102987.06;5016671;28;20025;-47
2022/04/29 03:49:38;;;;;;;12.40;5.35;;;;;;;7.33;79.16;102982.31;5016853;28;20030;-47
2022/04/29 03:52:04;;;;;;;11.00;4.97;;;;;;;7.32;79.56;102980.66;5016271;28;20334;-48
2022/04/29 03:54:30;;;;;;;12.55;5.15;;;;;;;7.24;79.95;102973.50;5016741;28;20112;-47
2022/04/29 03:56:56;;;;;;;15.15;4.95;;;;;;;7.30;79.74;102979.13;4999261;28;20120;-48
2022/04/29 03:59:23;;;;;;;16.73;5.97;;;;;;;7.22;79.76;102972.81;5016383;28;20022;-48
2022/04/29 04:01:49;;;;;;;17.15;5.72;;;;;;;7.22;80.31;102977.97;4998452;28;20063;-49
2022/04/29 04:04:15;;;;;;;14.88;5.10;;;;;;;7.16;80.76;102973.25;5016101;28;20109;-47
2022/04/29 04:06:52;;;;;;;11.90;5.35;;;;;;;7.14;80.27;102975.13;5014797;28;20556;-47
2022/04/29 04:09:20;;;;;;;18.73;5.93;;;;;;;7.14;80.54;102972.53;5014469;28;20030;-48
2022/04/29 04:11:46;;;;;;;13.48;4.95;;;;;;;7.27;79.92;102976.78;5015936;28;20022;-47
2022/04/29 04:14:11;;;;;;;19.40;5.55;;;;;;;7.16;80.05;102973.25;5015737;28;20053;-48
2022/04/29 04:16:38;;;;;;;20.00;5.07;;;;;;;7.17;80.96;102984.38;5015882;28;20026;-46
2022/04/29 04:19:04;;;;;;;14.82;5.15;;;;;;;7.05;80.67;102978.34;5015741;28;20026;-48
2022/04/29 04:21:30;;;;;;;22.90;7.10;;;;;;;7.14;80.80;102977.69;5015664;28;20129;-46
2022/04/29 04:23:55;;;;;;;10.20;5.32;;;;;;;7.20;80.85;102982.38;5015813;28;20036;-47
2022/04/29 04:26:22;;;;;;;11.93;5.00;;;;;;;7.09;80.25;102974.63;5015598;28;20022;-47
2022/04/29 04:28:47;;;;;;;11.32;5.43;;;;;;;7.14;80.09;102972.53;5015588;28;20528;-46
2022/04/29 04:31:12;;;;;;;11.13;5.15;;;;;;;7.06;80.28;102984.31;5015533;28;20034;-48
2022/04/29 04:33:38;;;;;;;13.27;5.38;;;;;;;7.12;80.90;102984.69;5015734;28;20544;-47
2022/04/29 04:36:04;;;;;;;17.02;6.20;;;;;;;7.07;80.83;102988.50;5015441;28;20030;-48
2022/04/29 04:38:30;;;;;;;15.15;5.15;;;;;;;7.11;80.78;102979.66;5015953;28;20030;-47
2022/04/29 04:40:56;;;;;;;12.20;5.40;;;;;;;7.15;80.57;102981.06;5015316;28;20072;-46
2022/04/29 04:43:21;;;;;;;18.98;5.20;;;;;;;7.26;79.88;102975.16;4997654;28;20056;-48
2022/04/29 04:45:46;;;;;;;12.43;5.60;;;;;;;7.17;79.89;102971.50;5015087;28;20030;-47
2022/04/29 04:48:12;;;;;;;11.00;5.30;;;;;;;7.15;80.61;102971.59;5015451;28;20026;-48
2022/04/29 04:50:37;;;;;;;13.68;6.05;;;;;;;7.27;79.69;102980.19;5015440;28;20026;-48
2022/04/29 04:53:03;;;;;;;15.75;6.60;;;;;;;7.17;80.14;102977.47;5015373;28;20021;-48
2022/04/29 04:55:28;;;;;;;16.05;5.38;;;;;;;7.09;81.04;102984.91;5015393;28;20034;-47
2022/04/29 04:57:53;;;;;;;9.40;5.10;;;;;;;7.14;80.45;102982.81;5015597;28;20406;-47
2022/04/29 05:00:19;;;;;;;15.25;5.55;;;;;;;7.29;79.46;102983.47;5015244;28;20028;-47
2022/04/29 05:02:44;;;;;;;12.55;5.10;;;;;;;7.12;79.50;102976.97;5014863;28;20515;-47
2022/04/29 05:05:10;;;;;;;17.42;5.60;;;;;;;7.17;80.33;102974.06;5015232;28;20034;-47
2022/04/29 05:07:38;;;;;;;18.05;5.63;;;;;;;7.26;80.26;102980.31;5015250;28;20072;-50
2022/04/29 05:10:05;;;;;;;16.13;5.38;;;;;;;7.30;79.62;102985.09;5014736;28;20420;-47
2022/04/29 05:12:31;;;;;;;14.10;5.75;;;;;;;7.31;79.03;102981.63;5014727;28;20018;-48
2022/04/29 05:14:56;;;;;;;14.48;5.30;;;;;;;7.06;79.19;102974.84;5014682;28;20050;-47
2022/04/29 05:17:21;;;;;;;19.08;7.10;;;;;;;7.41;78.72;102981.75;5014690;28;20022;-48
2022/04/29 05:19:47;;;;;;;14.30;5.30;;;;;;;7.37;78.77;102980.34;4997066;28;20372;-48
2022/04/29 05:22:12;;;;;;;14.32;4.90;;;;;;;7.47;78.41;102981.31;5014842;28;20030;-48
2022/04/29 05:24:37;;;;;;;12.70;5.15;;;;;;;7.48;77.96;102985.53;5015130;28;20540;-48
2022/04/29 05:27:03;;;;;;;17.10;5.60;;;;;;;7.42;78.30;102981.66;5014745;28;20034;-47
2022/04/29 05:29:28;;;;;;;11.73;5.28;;;;;;;7.22;78.64;102983.09;4996658;28;20045;-46
2022/04/29 05:31:54;;;;;;;14.75;5.82;;;;;;;7.37;78.88;103003.50;5013994;28;20034;-48
2022/04/29 05:34:19;;;;;;;15.32;5.75;;;;;;;7.65;77.70;102997.97;5012463;28;20088;-43
2022/04/29 05:36:44;;;;;;;15.10;5.32;;;;;;;7.43;78.17;102997.91;5013315;28;20026;-48
2022/04/29 05:44:38;;;;;;;16.85;5.43;;;;;;;7.86;76.72;103003.28;5014819;28;20072;-47
2022/04/29 05:47:04;;;;;;;16.95;5.47;;;;;;;7.85;77.01;103008.53;5012320;28;20026;-45
2022/04/29 05:49:29;;;;;;;17.45;5.70;;;;;;;8.11;75.65;103006.56;5013652;28;20476;-46
2022/04/29 05:51:54;;;;;;;10.70;5.50;;;;;;;8.07;75.37;102998.25;5013832;28;20030;-44
2022/04/29 05:54:19;;;;;;;19.30;6.20;;;;;;;7.97;75.90;103009.34;5013810;28;20041;-47
2022/04/29 05:56:45;;;;;;;14.40;5.22;;;;;;;8.26;74.73;103007.19;5013104;28;20461;-46
2022/04/29 05:59:10;;;;;;;12.98;4.82;;;;;;;8.48;74.11;103016.69;5013616;28;20026;-47
2022/04/29 06:01:35;;;;;;;12.25;4.68;;;;;;;8.61;72.79;102999.34;5013942;28;20032;-46
2022/04/29 06:04:00;;;;;;;13.35;5.32;;;;;;;8.98;72.45;102994.69;5013665;28;20057;-46
2022/04/29 06:06:26;;;;;;;13.85;5.10;;;;;;;8.67;72.30;102993.69;5014031;28;20477;-46
2022/04/29 06:08:51;;;;;;;10.55;5.03;;;;;;;8.89;72.66;102999.72;5012653;28;20026;-44
2022/04/29 06:11:17;;;;;;;21.30;5.53;;;;;;;9.29;71.28;102996.53;5013262;28;20481;-47
2022/04/29 06:13:43;;;;;;;8.07;4.57;;;;;;;9.84;68.88;102992.00;5013581;28;20029;-46
2022/04/29 06:16:10;;;;;;;18.52;5.22;;;;;;;10.04;68.64;102998.09;5014211;28;20365;-46
2022/04/29 06:18:36;;;;;;;16.88;5.50;;;;;;;9.96;67.41;102990.19;5013628;28;20065;-51
2022/04/29 06:21:01;;;;;;;11.13;4.72;;;;;;;10.48;66.03;102996.13;5013662;28;20032;-47
2022/04/29 06:23:27;;;;;;;14.45;4.75;;;;;;;10.60;66.26;103001.03;5013589;28;20030;-46
2022/04/29 06:25:53;;;;;;;10.38;4.55;;;;;;;11.14;63.77;102998.13;4995894;28;20095;-47
2022/04/29 06:28:19;;;;;;;12.48;4.80;;;;;;;11.82;62.35;103003.19;5013830;28;20026;-46
2022/04/29 06:30:44;;;;;;;13.57;4.97;;;;;;;12.06;60.36;103000.97;5012253;28;20033;-46
2022/04/29 06:33:09;;;;;;;18.65;4.40;;;;;;;11.43;62.09;103001.50;5013594;28;20496;-47
2022/04/29 06:35:37;;;;;;;11.88;4.65;;;;;;;11.89;60.80;103005.13;5013813;28;20025;-46
2022/04/29 06:38:03;;;;;;;13.13;4.97;;;;;;;11.99;61.08;102996.50;5013775;28;20033;-46
2022/04/29 06:40:28;;;;;;;16.15;4.88;;;;;;;11.64;61.57;103000.50;5013778;28;20449;-45
2022/04/29 06:42:53;;;;;;;15.43;4.88;;;;;;;11.12;62.90;103003.41;5013649;28;20081;-45
2022/04/29 06:45:19;;;;;;;11.55;4.40;;;;;;;11.42;63.08;103007.66;5014100;28;20488;-46
2022/04/29 06:47:44;;;;;;;19.48;4.88;;;;;;;11.21;63.86;103002.59;5013500;28;20104;-47
2022/04/29 06:50:12;;;;;;;9.25;4.75;;;;;;;11.35;63.98;103010.91;4996575;28;20052;-49
2022/04/29 06:52:37;;;;;;;14.25;5.22;;;;;;;11.56;62.89;103015.94;5013855;28;20022;-46
2022/04/29 06:55:03;;;;;;;12.15;4.90;;;;;;;11.23;63.76;103021.41;5013543;28;20416;-47
2022/04/29 06:57:30;;;;;;;11.93;5.07;;;;;;;10.55;65.73;103033.41;5013656;28;20113;-47
2022/04/29 06:59:56;;;;;;;17.65;6.07;;;;;;;9.91;67.75;103034.47;5011929;28;20389;-47
2022/04/29 07:02:21;;;;;;;12.25;4.97;;;;;;;10.20;67.76;103023.47;5012277;28;20029;-46
2022/04/29 07:04:46;;;;;;;12.40;5.18;;;;;;;10.04;68.19;103029.09;5013139;28;20026;-46
2022/04/29 07:07:14;;;;;;;20.83;5.53;;;;;;;10.78;65.64;103037.41;5013346;28;20037;-47
2022/04/29 07:09:40;;;;;;;19.08;5.03;;;;;;;10.32;67.25;103028.44;5014324;28;20021;-46
2022/04/29 07:12:07;;;;;;;15.38;5.15;;;;;;;10.21;67.67;103033.66;5016970;28;20025;-48
2022/04/29 07:14:33;;;;;;;12.50;4.80;;;;;;;10.38;66.37;103014.16;5016904;28;20125;-48
2022/04/29 07:16:58;;;;;;;10.70;5.07;;;;;;;10.08;68.14;103030.47;5017087;28;20061;-46
2022/04/29 07:19:23;;;;;;;14.27;5.45;;;;;;;9.85;68.68;103030.63;5016717;28;20056;-46
2022/04/29 07:21:49;;;;;;;12.57;5.25;;;;;;;9.27;70.35;103025.06;5016659;28;20117;-46
2022/04/29 07:24:14;;;;;;;10.15;4.95;;;;;;;10.01;68.62;103030.19;4999092;28;20022;-46
2022/04/29 07:26:39;;;;;;;14.75;5.50;;;;;;;10.24;68.54;103030.00;5016707;28;20460;-47
2022/04/29 07:29:06;;;;;;;15.50;5.20;;;;;;;10.82;65.89;103015.53;5016086;28;20045;-47
2022/04/29 07:31:32;;;;;;;16.92;5.50;;;;;;;10.39;66.89;103021.00;4998598;28;20018;-46
2022/04/29 07:33:57;;;;;;;17.35;4.97;;;;;;;10.58;67.01;103028.78;5015024;28;20028;-46
2022/04/29 07:41:51;;;;;;;15.77;5.50;;;;;;;10.44;66.64;103020.59;5001644;28;20120;-45
2022/04/29 07:44:16;;;;;;;12.15;5.50;;;;;;;10.67;65.96;103014.25;5016655;28;20049;-46
2022/04/29 07:46:45;;;;;;;15.70;5.57;;;;;;;11.44;64.22;103020.44;5016619;28;20034;-43
2022/04/29 07:49:11;;;;;;;14.50;5.35;;;;;;;10.76;65.23;103012.63;4998074;28;20022;-45
2022/04/29 07:51:36;;;;;;;15.35;5.63;;;;;;;10.65;66.48;103015.34;5015761;28;20068;-47
2022/04/29 07:54:03;;;;;;;13.43;5.28;;;;;;;11.44;64.43;103023.03;5016730;28;20021;-48
2022/04/29 07:56:29;;;;;;;11.05;5.65;;;;;;;10.88;65.26;103019.34;5015292;28;20374;-47
2022/04/29 07:58:55;;;;;;;13.63;5.45;;;;;;;10.57;66.12;103021.19;5016056;28;20028;-47
2022/04/29 08:01:21;;;;;;;14.70;5.90;;;;;;;11.29;64.85;103023.44;5016625;28;20036;-47
2022/04/29 08:03:46;;;;;;;10.98;5.60;;;;;;;12.03;62.31;103027.16;5016207;28;20427;-46
2022/04/29 08:06:11;;;;;;;14.40;5.03;;;;;;;11.64;63.57;103018.63;5016474;28;20453;-46
2022/04/29 08:08:39;;;;;;;8.73;5.10;;;;;;;10.51;65.34;103034.63;5016080;28;20022;-43
2022/04/29 08:11:05;;;;;;;11.20;5.35;;;;;;;10.61;65.96;103035.47;5015717;28;20026;-43
2022/04/29 08:13:31;;;;;;;14.52;6.03;;;;;;;10.96;66.22;103029.00;5016411;28;20069;-43
2022/04/29 08:15:58;;;;;;;12.57;5.03;;;;;;;11.83;63.86;103033.34;5015814;28;20482;-43
2022/04/29 08:18:24;;;;;;;16.42;6.00;;;;;;;11.82;62.61;103023.91;5015921;28;20028;-43
2022/04/29 08:20:50;;;;;;;17.50;5.57;;;;;;;11.90;62.45;103030.06;5015222;28;20388;-43
2022/04/29 08:23:15;;;;;;;12.95;5.28;;;;;;;11.60;62.69;103031.06;5015758;28;20021;-43
2022/04/29 08:25:40;;;;;;;14.85;5.32;;;;;;;11.59;63.13;103024.22;5015854;28;20033;-42
2022/04/29 08:28:05;;;;;;;18.00;5.85;;;;;;;10.86;65.29;103034.16;5015564;28;20485;-42
2022/04/29 08:30:31;;;;;;;9.57;5.60;;;;;;;10.60;65.59;103039.00;5015783;28;20118;-43
2022/04/29 08:32:58;;;;;;;11.45;5.50;;;;;;;10.42;66.89;103038.00;5015720;28;20472;-42
2022/04/29 08:35:24;;;;;;;16.95;6.15;;;;;;;10.93;65.55;103044.78;5015666;28;20030;-42
2022/04/29 08:37:49;;;;;;;11.05;5.38;;;;;;;10.49;66.27;103041.69;5015278;28;20440;-42
2022/04/29 08:40:16;;;;;;;13.52;5.60;;;;;;;11.02;65.31;103031.88;5015456;28;20032;-42
2022/04/29 08:42:42;;;;;;;11.20;5.20;;;;;;;10.96;64.25;103040.19;5015165;28;20105;-42
2022/04/29 08:45:11;;;;;;;13.05;5.28;;;;;;;10.60;65.98;103041.59;5015212;28;20061;-42
2022/04/29 08:47:39;;;;;;;10.27;5.60;;;;;;;10.54;66.21;103032.59;5015797;28;20493;-42
2022/04/29 08:50:06;;;;;;;15.65;5.68;;;;;;;10.19;67.05;103027.81;5015385;28;20029;-43
2022/04/29 08:52:32;;;;;;;13.60;5.30;;;;;;;10.32;66.99;103043.13;5015349;28;20022;-41
2022/04/29 09:00:27;;;;;;;14.27;5.32;;;;;;;10.45;66.08;103028.22;5012199;28;20553;-42
2022/04/29 09:02:53;;;;;;;12.95;5.53;;;;;;;10.57;66.32;103022.00;5012878;28;20050;-40
2022/04/29 09:05:19;;;;;;;13.68;5.47;;;;;;;10.74;65.49;103015.38;5012166;28;20424;-41
2022/04/29 09:07:54;;;;;;;20.52;5.93;;;;;;;10.75;65.00;103019.56;5011377;28;20025;-41
2022/04/29 09:10:21;;;;;;;10.32;5.50;;;;;;;10.70;64.98;103032.09;5010756;28;20026;-41
2022/04/29 09:12:46;;;;;;;15.50;5.57;;;;;;;10.66;65.17;103022.16;5012863;28;20022;-41
2022/04/29 09:15:13;;;;;;;12.10;5.10;;;;;;;10.57;65.84;103023.75;5013482;28;20042;-42
2022/04/29 09:17:43;;;;;;;13.07;5.53;;;;;;;10.26;66.69;103022.94;4997094;28;20038;-42
2022/04/29 09:20:14;;;;;;;15.27;5.13;;;;;;;10.62;66.40;103029.38;5014000;28;20026;-41
2022/04/29 09:22:39;;;;;;;13.68;5.30;;;;;;;9.78;67.96;103021.78;5014000;28;20380;-41
2022/04/29 09:25:05;;;;;;;18.50;5.68;;;;;;;10.55;66.55;103034.22;5014135;28;20030;-41
2022/04/29 09:27:30;;;;;;;14.32;5.43;;;;;;;10.95;65.26;103014.44;5012324;28;20088;-41
2022/04/29 09:29:59;;;;;;;15.63;5.88;;;;;;;10.92;65.08;103025.88;4995756;28;20026;-40
2022/04/29 09:32:24;;;;;;;10.82;5.30;;;;;;;11.05;65.48;103021.28;5013309;28;20488;-45
2022/04/29 09:34:53;;;;;;;12.43;5.50;;;;;;;10.69;65.23;103034.81;5014543;28;20029;-41
2022/04/29 09:37:24;;;;;;;12.60;5.75;;;;;;;10.09;67.19;103026.94;5014576;28;20103;-43
2022/04/29 09:39:57;;;;;;;14.35;5.40;;;;;;;10.77;65.47;103019.47;5014518;28;20026;-43
2022/04/29 09:42:22;;;;;;;10.95;5.13;;;;;;;11.53;63.46;103027.38;5014114;28;20026;-46
2022/04/29 09:44:48;;;;;;;13.25;4.85;;;;;;;11.52;63.26;103023.97;5014374;28;20080;-47
2022/04/29 09:47:16;;;;;;;14.77;5.50;;;;;;;11.62;62.70;103026.53;4996590;28;20057;-47
2022/04/29 09:49:58;;;;;;;10.35;5.55;;;;;;;11.60;61.97;103028.47;5014296;28;20033;-48
2022/04/29 09:52:25;;;;;;;13.13;5.20;;;;;;;11.57;62.76;103026.16;5014564;28;20040;-47
2022/04/29 09:54:51;;;;;;;14.05;5.18;;;;;;;11.59;62.05;103031.19;5014332;28;20527;-47
2022/04/29 09:57:23;;;;;;;11.70;4.78;;;;;;;11.68;61.73;103036.38;5014229;28;20108;-47
2022/04/29 09:59:55;;;;;;;10.90;5.25;;;;;;;11.92;61.34;103040.28;5014128;28;20037;-47
2022/04/29 10:02:22;;;;;;;11.80;4.97;;;;;;;11.62;61.18;103033.50;5013854;28;20057;-48
2022/04/29 10:04:49;;;;;;;11.57;5.20;;;;;;;11.92;61.14;103025.56;5014158;28;20472;-47
2022/04/29 10:07:19;;;;;;;9.82;4.78;;;;;;;11.68;61.16;103028.59;5014022;28;20129;-47
2022/04/29 10:09:49;;;;;;;11.63;5.05;;;;;;;11.41;62.10;103028.47;5014004;28;20477;-46
2022/04/29 10:12:20;;;;;;;12.65;4.95;;;;;;;11.60;61.49;103028.47;5013996;28;20025;-48
2022/04/29 10:14:48;;;;;;;12.38;4.85;;;;;;;12.19;60.11;103032.56;5013647;28;20057;-47
2022/04/29 10:23:03;;;;;;;9.02;4.40;;;;;;;11.44;59.79;103023.84;5013761;28;20033;-46
2022/04/29 10:25:29;;;;;;;9.25;4.10;;;;;;;10.97;61.22;103023.72;5013581;28;20026;-46
2022/04/29 10:27:55;;;;;;;10.55;4.15;;;;;;;11.72;60.27;103032.53;5014291;28;20024;-46
2022/04/29 10:30:28;;;;;;;13.00;4.28;;;;;;;12.01;59.21;103028.28;4995884;28;20041;-46
2022/04/29 10:33:00;;;;;;;9.13;4.20;;;;;;;12.28;57.09;103024.88;5013556;28;20033;-46
2022/04/29 10:35:42;;;;;;;10.57;4.07;;;;;;;12.11;57.71;103022.09;5014096;28;20030;-46
2022/04/29 10:38:35;;;;;;;8.00;3.92;;;;;;;12.12;57.83;103028.91;5013852;28;20022;-46
2022/04/29 10:41:06;;;;;;;10.88;4.18;;;;;;;12.57;56.57;103025.56;5012596;28;20057;-47
2022/04/29 10:43:32;;;;;;;10.40;3.90;;;;;;;12.63;56.34;103035.38;5014222;28;20026;-45
2022/04/29 10:46:03;;;;;;;9.90;3.88;;;;;;;12.44;55.69;103030.28;5017100;28;20040;-45
2022/04/29 10:48:35;;;;;;;12.82;4.30;;;;;;;12.45;56.88;103036.25;5017432;28;20472;-46
2022/04/29 10:51:09;;;;;;;9.45;4.50;;;;;;;12.37;56.75;103029.19;5017211;28;20025;-45
2022/04/29 10:53:38;;;;;;;8.13;4.22;;;;;;;12.60;56.63;103027.88;5017513;28;20030;-46
2022/04/29 10:56:28;;;;;;;10.45;4.07;;;;;;;12.70;55.83;103030.41;5017346;28;20037;-46
2022/04/29 10:58:58;;;;;;;8.60;4.30;;;;;;;12.94;55.40;103008.25;5017283;28;20050;-47
2022/04/29 11:01:25;;;;;;;8.38;4.30;;;;;;;13.43;53.42;103000.88;5017409;28;20348;-46
2022/04/29 11:03:50;;;;;;;8.80;4.15;;;;;;;13.37;53.62;102998.91;5017018;28;20113;-46
2022/04/29 11:06:16;;;;;;;11.13;4.18;;;;;;;13.24;53.70;103001.88;5016742;28;20057;-46
2022/04/29 11:08:44;;;;;;;9.30;4.18;;;;;;;13.16;54.55;102997.41;5017086;28;20465;-46
2022/04/29 11:11:10;;;;;;;12.38;4.30;;;;;;;13.12;53.74;102988.31;5017249;28;20183;-46
2022/04/29 11:13:44;;;;;;;13.40;4.00;;;;;;;12.83;54.21;102978.97;5017289;28;20079;-46
2022/04/29 11:16:13;;;;;;;10.45;4.40;;;;;;;12.94;54.24;102969.31;5017017;28;20480;-47
2022/04/29 11:18:41;;;;;;;9.85;4.68;;;;;;;12.79;54.42;102982.00;4999015;28;20021;-47
2022/04/29 11:26:44;;;;;;;11.90;4.80;;;;;;;12.67;55.46;102972.81;5001518;28;20521;-47
2022/04/29 11:29:10;;;;;;;11.80;4.60;;;;;;;13.26;54.71;102980.03;5016023;28;20376;-44
2022/04/29 11:31:36;;;;;;;9.63;4.80;;;;;;;13.04;54.24;102983.84;5016526;28;20457;-46
2022/04/29 11:34:07;;;;;;;10.63;4.80;;;;;;;13.44;53.96;102986.97;5016535;28;20025;-47
2022/04/29 11:36:32;;;;;;;10.68;4.80;;;;;;;13.71;52.77;102978.19;5015934;28;20368;-45
2022/04/29 11:38:58;;;;;;;8.75;4.70;;;;;;;13.25;53.96;102993.94;5015472;28;20109;-45
2022/04/29 11:41:28;;;;;;;11.95;5.32;;;;;;;13.13;54.46;102983.94;5016243;28;20105;-46
2022/04/29 11:43:54;;;;;;;12.68;4.97;;;;;;;13.46;54.27;102983.22;5016297;28;20075;-47
2022/04/29 11:46:20;;;;;;;9.85;4.90;;;;;;;13.35;54.40;102993.88;5016484;28;20368;-48
2022/04/29 11:48:53;;;;;;;9.13;4.93;;;;;;;13.77;52.92;102990.56;5016582;28;20079;-47